createdAt,value
2022-10-21T00:00:13.878Z,60.17
2022-10-21T00:02:15.480Z,59.95
2022-10-21T00:04:17.068Z,60.15
2022-10-21T00:06:18.702Z,60.25
2022-10-21T00:08:20.856Z,60.07
2022-10-21T00:10:22.657Z,60.48
2022-10-21T00:12:24.327Z,60.60
2022-10-21T00:14:25.933Z,60.30
2022-10-21T00:16:27.541Z,60.81
2022-10-21T00:18:29.730Z,61.27
2022-10-21T00:20:33.637Z,61.57
2022-10-21T00:22:38.033Z,61.93
2022-10-21T00:24:39.852Z,62.13
2022-10-21T00:26:41.474Z,62.39
2022-10-21T00:28:43.444Z,62.09
2022-10-21T00:30:46.062Z,62.35
2022-10-21T00:32:47.670Z,62.09
2022-10-21T00:34:49.292Z,62.20
2022-10-21T00:36:50.957Z,62.07
2022-10-21T00:38:53.609Z,62.28
2022-10-21T00:40:55.428Z,61.87
2022-10-21T00:42:57.034Z,61.87
2022-10-21T00:45:07.438Z,62.18
2022-10-21T00:47:16.125Z,62.45
2022-10-21T00:49:36.756Z,63.50
2022-10-21T00:51:38.640Z,64.36
2022-10-21T00:53:43.030Z,63.72
2022-10-21T00:55:51.886Z,66.33
2022-10-21T00:57:53.809Z,67.43
2022-10-21T00:59:59.355Z,67.28
2022-10-21T01:02:00.932Z,67.69
2022-10-21T01:04:03.965Z,67.73
2022-10-21T01:06:08.802Z,67.64
2022-10-21T01:08:10.571Z,66.32
2022-10-21T01:10:12.289Z,65.90
2022-10-21T01:12:36.947Z,64.73
2022-10-21T01:14:41.237Z,64.06
2022-10-21T01:16:48.325Z,63.59
2022-10-21T01:19:01.991Z,63.96
2022-10-21T01:21:18.892Z,63.07
2022-10-21T01:23:28.459Z,63.34
2022-10-21T01:26:00.339Z,63.52
2022-10-21T01:28:36.196Z,62.77
2022-10-21T01:30:58.131Z,62.78
2022-10-21T01:33:08.610Z,62.52
2022-10-21T01:35:25.345Z,62.62
2022-10-21T01:37:48.812Z,63.08
2022-10-21T01:39:53.644Z,62.98
2022-10-21T01:41:59.835Z,63.11
2022-10-21T01:44:10.055Z,62.69
2022-10-21T01:46:25.036Z,63.13
2022-10-21T01:48:33.689Z,63.35
2022-10-21T01:50:39.554Z,63.36
2022-10-21T01:52:42.916Z,63.83
2022-10-21T01:54:46.403Z,63.94
2022-10-21T01:56:48.999Z,63.01
2022-10-21T01:58:51.105Z,63.13
2022-10-21T02:00:54.398Z,63.30
2022-10-21T02:02:56.241Z,64.48
2022-10-21T02:04:59.504Z,65.45
2022-10-21T02:07:01.408Z,65.55
2022-10-21T02:09:03.213Z,65.37
2022-10-21T02:11:07.586Z,65.04
2022-10-21T02:13:11.537Z,64.67
2022-10-21T02:15:15.239Z,64.61
2022-10-21T02:17:18.901Z,64.14
2022-10-21T02:19:21.165Z,64.60
2022-10-21T02:21:23.941Z,63.71
2022-10-21T02:23:39.339Z,63.86
2022-10-21T02:25:42.754Z,64.60
2022-10-21T02:27:44.772Z,63.57
2022-10-21T02:29:47.523Z,64.58
2022-10-21T02:32:15.686Z,65.96
2022-10-21T02:34:27.721Z,66.43
2022-10-21T02:36:34.132Z,66.49
2022-10-21T02:38:52.871Z,67.46
2022-10-21T02:40:56.261Z,68.38
2022-10-21T02:43:13.958Z,68.30
2022-10-21T02:45:16.839Z,69.32
2022-10-21T02:47:18.550Z,69.44
2022-10-21T02:49:20.160Z,69.89
2022-10-21T02:51:21.845Z,70.01
2022-10-21T02:53:23.548Z,69.15
2022-10-21T02:55:25.238Z,68.97
2022-10-21T02:57:26.829Z,67.91
2022-10-21T02:59:28.375Z,67.21
2022-10-21T03:01:30.140Z,66.48
2022-10-21T03:03:31.972Z,65.78
2022-10-21T03:05:33.591Z,65.52
2022-10-21T03:07:36.052Z,64.83
2022-10-21T03:09:37.866Z,64.98
2022-10-21T03:11:39.524Z,66.29
2022-10-21T03:13:41.199Z,66.67
2022-10-21T03:15:42.892Z,68.56
2022-10-21T03:17:44.649Z,68.57
2022-10-21T03:19:46.250Z,68.12
2022-10-21T03:21:47.936Z,68.32
2022-10-21T03:23:49.575Z,69.34
2022-10-21T03:25:51.249Z,68.60
2022-10-21T03:27:52.936Z,68.11
2022-10-21T03:29:54.601Z,67.16
2022-10-21T03:31:56.258Z,66.57
2022-10-21T03:33:57.987Z,66.44
2022-10-21T03:35:59.613Z,66.02
2022-10-21T03:38:01.324Z,66.58
2022-10-21T03:40:05.420Z,65.72
2022-10-21T03:42:09.154Z,64.96
2022-10-21T03:44:10.825Z,65.12
2022-10-21T03:46:12.416Z,64.85
2022-10-21T03:48:14.167Z,64.89
2022-10-21T03:50:18.366Z,65.09
2022-10-21T03:52:23.877Z,64.78
2022-10-21T03:54:25.525Z,64.62
2022-10-21T03:56:27.318Z,64.95
2022-10-21T03:58:28.918Z,64.55
2022-10-21T04:00:31.720Z,64.98
2022-10-21T04:02:33.575Z,64.89
2022-10-21T04:04:35.234Z,64.77
2022-10-21T04:06:39.280Z,65.02
2022-10-21T04:08:40.992Z,65.16
2022-10-21T04:10:42.739Z,64.61
2022-10-21T04:12:44.383Z,64.51
2022-10-21T04:14:46.014Z,65.32
2022-10-21T04:16:48.017Z,64.91
2022-10-21T04:18:49.826Z,65.12
2022-10-21T04:20:51.452Z,65.03
2022-10-21T04:22:53.076Z,64.87
2022-10-21T04:24:54.765Z,65.13
2022-10-21T04:26:56.780Z,65.03
2022-10-21T04:28:58.396Z,65.29
2022-10-21T04:31:00.087Z,65.14
2022-10-21T04:33:01.938Z,64.47
2022-10-21T04:35:03.764Z,64.88
2022-10-21T04:37:05.517Z,64.55
2022-10-21T04:39:07.360Z,64.51
2022-10-21T04:41:08.939Z,64.82
2022-10-21T04:43:10.498Z,64.83
2022-10-21T04:45:12.326Z,63.93
2022-10-21T04:47:13.889Z,64.17
2022-10-21T04:49:15.515Z,64.14
2022-10-21T04:51:17.256Z,65.08
2022-10-21T04:53:18.953Z,63.87
2022-10-21T04:55:20.550Z,64.22
2022-10-21T04:57:22.156Z,64.05
2022-10-21T04:59:23.769Z,64.84
2022-10-21T05:01:25.594Z,64.45
2022-10-21T05:03:27.235Z,64.44
2022-10-21T05:05:28.977Z,64.44
2022-10-21T05:07:30.682Z,64.92
2022-10-21T05:09:32.317Z,64.14
2022-10-21T05:11:33.904Z,63.90
2022-10-21T05:13:35.503Z,63.88
2022-10-21T05:15:37.095Z,63.30
2022-10-21T05:17:39.024Z,63.84
2022-10-21T05:19:40.910Z,63.23
2022-10-21T05:21:42.623Z,63.29
2022-10-21T05:23:44.281Z,63.04
2022-10-21T05:25:46.683Z,62.74
2022-10-21T05:27:48.372Z,62.19
2022-10-21T05:29:50.006Z,61.85
2022-10-21T05:31:52.007Z,61.70
2022-10-21T05:33:53.622Z,62.01
2022-10-21T05:36:01.070Z,61.83
2022-10-21T05:38:04.461Z,62.83
2022-10-21T05:40:06.893Z,62.82
2022-10-21T05:42:08.499Z,62.93
2022-10-21T05:44:10.337Z,62.10
2022-10-21T05:46:11.962Z,62.23
2022-10-21T05:48:17.803Z,61.91
2022-10-21T05:50:19.762Z,61.64
2022-10-21T05:52:21.481Z,61.02
2022-10-21T05:54:23.256Z,61.06
2022-10-21T05:56:25.010Z,60.59
2022-10-21T05:58:27.679Z,60.74
2022-10-21T06:00:29.449Z,60.30
2022-10-21T06:02:31.126Z,60.51
2022-10-21T06:04:37.790Z,60.53
2022-10-21T06:06:40.505Z,60.02
2022-10-21T06:08:42.144Z,60.68
2022-10-21T06:10:44.553Z,60.38
2022-10-21T06:12:46.275Z,59.96
2022-10-21T06:14:47.855Z,60.40
2022-10-21T06:16:49.710Z,59.59
2022-10-21T06:18:51.408Z,59.64
2022-10-21T06:20:53.199Z,59.98
2022-10-21T06:22:54.844Z,60.16
2022-10-21T06:24:56.414Z,60.06
2022-10-21T06:26:58.044Z,59.60
2022-10-21T06:28:59.769Z,59.76
2022-10-21T06:31:01.556Z,60.21
2022-10-21T06:33:03.219Z,60.61
2022-10-21T06:35:05.080Z,60.59
2022-10-21T06:37:06.667Z,60.51
2022-10-21T06:39:08.661Z,61.00
2022-10-21T06:41:13.639Z,60.20
2022-10-21T06:43:16.762Z,60.91
2022-10-21T06:45:18.470Z,61.49
2022-10-21T06:47:20.112Z,61.60
2022-10-21T06:49:21.747Z,61.44
2022-10-21T06:51:24.591Z,61.91
2022-10-21T06:53:26.316Z,62.33
2022-10-21T06:55:27.961Z,63.56
2022-10-21T06:57:29.764Z,63.30
2022-10-21T06:59:31.679Z,62.89
2022-10-21T07:01:48.375Z,62.86
2022-10-21T07:03:55.541Z,62.16
2022-10-21T07:06:00.648Z,61.88
2022-10-21T07:08:02.816Z,62.14
2022-10-21T07:10:05.092Z,62.55
2022-10-21T07:12:06.718Z,64.13
2022-10-21T07:14:08.366Z,64.00
2022-10-21T07:16:39.462Z,63.87
2022-10-21T07:18:42.646Z,64.19
2022-10-21T07:20:44.402Z,64.69
2022-10-21T07:22:46.169Z,64.43
2022-10-21T07:24:47.816Z,64.05
2022-10-21T07:26:49.889Z,63.91
2022-10-21T07:28:52.433Z,62.76
2022-10-21T07:30:54.021Z,62.40
2022-10-21T07:33:01.851Z,61.52
2022-10-21T07:35:03.897Z,60.95
2022-10-21T07:37:05.534Z,60.47
2022-10-21T07:39:10.632Z,59.74
2022-10-21T07:41:24.045Z,59.33
2022-10-21T07:43:25.766Z,58.97
2022-10-21T07:45:27.385Z,59.07
2022-10-21T07:47:29.078Z,60.07
2022-10-21T07:49:30.883Z,60.56
2022-10-21T07:51:32.559Z,60.12
2022-10-21T07:53:34.559Z,59.91
2022-10-21T07:55:36.203Z,59.81
2022-10-21T07:57:37.975Z,59.33
2022-10-21T07:59:39.633Z,60.17
2022-10-21T08:01:44.867Z,60.44
2022-10-21T08:03:47.283Z,59.83
2022-10-21T08:05:48.876Z,60.93
2022-10-21T08:07:50.982Z,61.62
2022-10-21T08:09:52.578Z,61.80
2022-10-21T08:11:54.211Z,61.19
2022-10-21T08:13:57.146Z,59.95
2022-10-21T08:15:59.225Z,60.26
2022-10-21T08:18:00.837Z,60.33
2022-10-21T08:20:02.743Z,60.14
2022-10-21T08:22:04.865Z,59.03
2022-10-21T08:24:06.694Z,58.53
2022-10-21T08:26:10.888Z,57.72
2022-10-21T08:28:12.516Z,57.48
2022-10-21T08:30:15.717Z,57.44
2022-10-21T08:32:17.294Z,57.64
2022-10-21T08:34:18.914Z,57.49
2022-10-21T08:36:23.104Z,56.80
2022-10-21T08:38:24.762Z,56.54
2022-10-21T08:40:30.025Z,58.82
2022-10-21T08:42:31.959Z,59.97
2022-10-21T08:45:09.420Z,59.66
2022-10-21T08:47:21.320Z,59.88
2022-10-21T08:49:30.846Z,60.25
2022-10-21T08:51:36.316Z,59.32
2022-10-21T08:53:41.653Z,59.58
2022-10-21T08:55:45.501Z,58.90
2022-10-21T08:57:50.425Z,58.21
2022-10-21T08:59:52.135Z,58.74
2022-10-21T09:02:16.435Z,58.78
2022-10-21T09:04:52.016Z,59.37
2022-10-21T09:07:02.878Z,59.14
2022-10-21T09:09:14.503Z,58.82
2022-10-21T09:11:19.670Z,58.01
2022-10-21T09:13:38.266Z,57.33
2022-10-21T09:16:01.454Z,56.01
2022-10-21T09:18:21.205Z,55.41
2022-10-21T09:21:20.511Z,55.39
2022-10-21T09:23:58.685Z,55.64
2022-10-21T09:26:01.263Z,55.90
2022-10-21T09:28:28.473Z,55.33
2022-10-21T09:30:30.122Z,54.32
2022-10-21T09:32:38.833Z,54.22
2022-10-21T09:34:49.321Z,53.57
2022-10-21T09:36:52.413Z,52.80
2022-10-21T09:39:01.761Z,52.87
2022-10-21T09:41:06.065Z,52.11
2022-10-21T09:43:16.587Z,52.41
2022-10-21T09:45:35.874Z,52.58
2022-10-21T09:47:37.462Z,51.70
2022-10-21T09:50:05.992Z,51.26
2022-10-21T09:52:03.634Z,50.66
2022-10-21T09:54:10.283Z,50.49
2022-10-21T09:56:24.154Z,50.78
2022-10-21T09:58:27.988Z,50.60
2022-10-21T10:00:48.319Z,50.56
2022-10-21T10:02:49.977Z,50.24
2022-10-21T10:04:51.690Z,49.10
2022-10-21T10:06:53.871Z,49.22
2022-10-21T10:09:14.058Z,48.71
2022-10-21T10:11:18.784Z,48.20
2022-10-21T10:13:20.595Z,48.36
2022-10-21T10:15:30.781Z,48.78
2022-10-21T10:17:37.248Z,48.82
2022-10-21T10:19:38.859Z,49.65
2022-10-21T10:21:40.542Z,50.24
2022-10-21T10:24:02.696Z,50.20
2022-10-21T10:26:04.411Z,50.83
2022-10-21T10:28:08.796Z,51.65
2022-10-21T10:30:14.056Z,51.68
2022-10-21T10:32:16.482Z,51.36
2022-10-21T10:34:23.738Z,51.10
2022-10-21T10:36:29.191Z,50.17
2022-10-21T10:38:53.015Z,50.42
2022-10-21T10:40:56.427Z,50.19
2022-10-21T10:43:07.654Z,49.05
2022-10-21T10:45:20.365Z,50.44
2022-10-21T10:47:26.909Z,50.16
2022-10-21T10:49:35.169Z,49.79
2022-10-21T10:51:36.877Z,49.04
2022-10-21T10:53:38.695Z,48.28
2022-10-21T10:55:44.013Z,47.43
2022-10-21T10:57:59.094Z,47.20
2022-10-21T11:00:19.853Z,47.02
2022-10-21T11:02:39.987Z,46.40
2022-10-21T11:04:43.833Z,46.36
2022-10-21T11:06:51.529Z,46.67
2022-10-21T11:08:55.933Z,46.14
2022-10-21T11:11:01.338Z,45.79
2022-10-21T11:13:05.540Z,46.27
2022-10-21T11:15:12.405Z,46.10
2022-10-21T11:17:17.030Z,45.73
2022-10-21T11:19:43.820Z,47.18
2022-10-21T11:21:53.552Z,47.43
2022-10-21T11:24:16.594Z,46.99
2022-10-21T11:26:34.008Z,46.91
2022-10-21T11:28:47.602Z,46.49
2022-10-21T11:31:21.841Z,46.98
2022-10-21T11:33:44.505Z,46.56
2022-10-21T11:36:15.377Z,47.01
2022-10-21T11:38:29.129Z,47.70
2022-10-21T11:40:36.293Z,47.28
2022-10-21T11:42:43.399Z,47.23
2022-10-21T11:45:12.855Z,47.96
2022-10-21T11:47:42.066Z,48.26
2022-10-21T11:52:48.992Z,47.66
2022-10-21T11:55:10.763Z,47.75
2022-10-21T11:57:29.217Z,47.42
2022-10-21T11:59:57.961Z,47.21
2022-10-21T12:02:17.877Z,47.26
2022-10-21T12:04:28.802Z,47.38
2022-10-21T12:06:45.191Z,46.89
2022-10-21T12:09:06.746Z,46.45
2022-10-21T12:11:22.539Z,46.42
2022-10-21T12:13:33.930Z,46.38
2022-10-21T12:15:41.854Z,46.40
2022-10-21T12:17:44.558Z,46.79
2022-10-21T12:19:54.455Z,47.26
2022-10-21T12:21:56.155Z,46.97
2022-10-21T12:24:34.119Z,46.53
2022-10-21T12:26:40.539Z,46.78
2022-10-21T12:28:57.194Z,46.42
2022-10-21T12:31:13.729Z,46.20
2022-10-21T12:33:25.173Z,46.20
2022-10-21T12:35:46.515Z,45.98
2022-10-21T12:37:53.328Z,46.61
2022-10-21T12:40:09.924Z,46.60
2022-10-21T12:42:15.363Z,46.27
2022-10-21T12:44:21.941Z,46.35
2022-10-21T12:46:26.462Z,46.41
2022-10-21T12:48:34.598Z,46.34
2022-10-21T12:50:36.336Z,46.33
2022-10-21T12:52:39.039Z,45.95
2022-10-21T12:54:54.338Z,45.67
2022-10-21T12:57:01.878Z,46.19
2022-10-21T12:59:06.845Z,46.57
2022-10-21T13:01:34.165Z,47.38
2022-10-21T13:03:45.016Z,46.85
2022-10-21T13:05:46.589Z,47.09
2022-10-21T13:08:20.131Z,47.96
2022-10-21T13:10:25.355Z,48.21
2022-10-21T13:12:31.465Z,48.03
2022-10-21T13:14:48.540Z,47.62
2022-10-21T13:16:50.157Z,47.49
2022-10-21T13:19:06.081Z,47.31
2022-10-21T13:21:23.257Z,46.79
2022-10-21T13:23:32.967Z,46.50
2022-10-21T13:25:38.261Z,46.63
2022-10-21T13:27:40.411Z,46.79
2022-10-21T13:29:47.032Z,46.74
2022-10-21T13:32:14.101Z,47.07
2022-10-21T13:34:28.459Z,46.62
2022-10-21T13:36:42.945Z,46.18
2022-10-21T13:38:53.040Z,46.05
2022-10-21T13:41:05.564Z,46.10
2022-10-21T13:43:16.247Z,46.19
2022-10-21T13:45:30.879Z,46.35
2022-10-21T13:47:35.212Z,46.29
2022-10-21T13:49:36.876Z,46.10
2022-10-21T13:51:45.857Z,45.89
2022-10-21T13:53:48.866Z,45.24
2022-10-21T13:56:23.967Z,45.50
2022-10-21T13:58:26.925Z,45.75
2022-10-21T14:00:30.739Z,45.70
2022-10-21T14:02:32.449Z,45.29
2022-10-21T14:04:34.748Z,45.33
2022-10-21T14:06:40.962Z,45.69
2022-10-21T14:08:44.634Z,45.88
2022-10-21T14:10:46.780Z,45.81
2022-10-21T14:12:49.012Z,45.50
2022-10-21T14:14:51.814Z,45.18
2022-10-21T14:16:56.965Z,45.50
2022-10-21T14:18:59.489Z,45.38
2022-10-21T14:23:21.725Z,45.08
2022-10-21T14:25:23.413Z,45.13
2022-10-21T14:27:30.611Z,44.39
2022-10-21T14:29:35.029Z,44.38
2022-10-21T14:31:36.700Z,44.40
2022-10-21T14:33:43.441Z,44.25
2022-10-21T14:35:45.055Z,44.32
2022-10-21T14:37:49.045Z,44.34
2022-10-21T14:39:50.742Z,44.25
2022-10-21T14:41:52.476Z,44.47
2022-10-21T14:43:54.679Z,44.47
2022-10-21T14:45:56.475Z,44.71
2022-10-21T14:48:08.353Z,44.56
2022-10-21T14:50:18.907Z,44.53
2022-10-21T14:52:42.929Z,44.68
2022-10-21T14:54:47.286Z,44.83
2022-10-21T14:56:49.095Z,45.00
2022-10-21T14:58:57.038Z,45.20
2022-10-21T15:01:00.420Z,45.58
2022-10-21T15:03:02.148Z,45.59
2022-10-21T15:05:34.641Z,45.77
2022-10-21T15:07:38.798Z,45.86
2022-10-21T15:10:18.965Z,45.98
2022-10-21T15:12:20.556Z,46.27
2022-10-21T15:14:28.843Z,46.30
2022-10-21T15:16:30.761Z,46.61
2022-10-21T15:18:43.816Z,46.90
2022-10-21T15:20:50.653Z,47.13
2022-10-21T15:22:53.425Z,47.47
2022-10-21T15:24:58.906Z,47.62
2022-10-21T15:27:01.801Z,47.69
2022-10-21T15:29:14.901Z,47.91
2022-10-21T15:31:23.860Z,48.04
2022-10-21T15:33:27.388Z,48.23
2022-10-21T15:35:28.941Z,48.36
2022-10-21T15:37:30.532Z,48.65
2022-10-21T15:39:32.275Z,48.64
2022-10-21T15:41:33.986Z,48.67
2022-10-21T15:43:35.590Z,49.06
2022-10-21T15:45:37.294Z,49.06
2022-10-21T15:47:39.070Z,49.27
2022-10-21T15:49:45.955Z,49.38
2022-10-21T15:51:48.690Z,49.82
2022-10-21T15:53:50.313Z,49.94
2022-10-21T15:55:51.877Z,49.98
2022-10-21T15:57:53.797Z,50.20
2022-10-21T15:59:55.394Z,50.34
2022-10-21T16:01:58.059Z,50.51
2022-10-21T16:04:00.086Z,50.76
2022-10-21T16:06:01.672Z,51.32
2022-10-21T16:08:03.406Z,51.22
2022-10-21T16:10:32.707Z,51.26
2022-10-21T16:12:34.380Z,51.55
2022-10-21T16:14:36.014Z,51.69
2022-10-21T16:16:39.226Z,52.00
2022-10-21T16:18:40.887Z,51.90
2022-10-21T16:20:43.243Z,52.12
2022-10-21T16:22:45.106Z,52.30
2022-10-21T16:24:46.732Z,52.31
2022-10-21T16:26:49.208Z,52.31
2022-10-21T16:28:52.328Z,52.25
2022-10-21T16:30:53.979Z,52.33
2022-10-21T16:32:57.252Z,52.38
2022-10-21T16:34:59.087Z,52.22
2022-10-21T16:37:01.611Z,52.64
2022-10-21T16:39:17.638Z,52.87
2022-10-21T16:41:21.684Z,53.05
2022-10-21T16:43:24.073Z,53.62
2022-10-21T16:45:29.045Z,53.73
2022-10-21T16:47:30.865Z,53.86
2022-10-21T16:49:33.122Z,53.54
2022-10-21T16:51:36.506Z,53.84
2022-10-21T16:53:38.532Z,53.48
2022-10-21T16:55:40.185Z,53.65
2022-10-21T16:57:42.313Z,53.17
2022-10-21T16:59:44.136Z,53.50
2022-10-21T17:01:45.955Z,53.44
2022-10-21T17:03:47.560Z,53.74
2022-10-21T17:05:52.580Z,53.56
2022-10-21T17:07:54.976Z,52.91
2022-10-21T17:09:56.569Z,53.12
2022-10-21T17:11:58.144Z,53.11
2022-10-21T17:14:01.006Z,53.73
2022-10-21T17:16:02.676Z,54.48
2022-10-21T17:18:04.283Z,54.94
2022-10-21T17:20:06.441Z,55.10
2022-10-21T17:22:13.819Z,54.91
2022-10-21T17:24:17.732Z,54.54
2022-10-21T17:26:19.621Z,55.25
2022-10-21T17:28:21.620Z,55.92
2022-10-21T17:30:24.054Z,56.08
2022-10-21T17:32:25.664Z,56.10
2022-10-21T17:34:32.579Z,56.51
2022-10-21T17:36:38.103Z,56.31
2022-10-21T17:38:40.125Z,55.83
2022-10-21T17:40:41.882Z,55.55
2022-10-21T17:42:43.600Z,55.57
2022-10-21T17:44:45.281Z,55.76
2022-10-21T17:46:54.368Z,56.00
2022-10-21T17:48:57.512Z,56.26
2022-10-21T17:51:01.658Z,57.07
2022-10-21T17:53:03.310Z,57.13
2022-10-21T17:55:06.268Z,57.18
2022-10-21T17:57:07.993Z,57.03
2022-10-21T17:59:10.030Z,56.85
2022-10-21T18:01:13.335Z,57.58
2022-10-21T18:03:18.065Z,57.38
2022-10-21T18:05:19.850Z,57.47
2022-10-21T18:07:22.000Z,57.12
2022-10-21T18:09:23.746Z,56.17
2022-10-21T18:11:26.073Z,56.41
2022-10-21T18:13:30.020Z,57.16
2022-10-21T18:15:31.709Z,57.34
2022-10-21T18:17:34.513Z,57.56
2022-10-21T18:19:36.351Z,57.18
2022-10-21T18:21:38.987Z,56.41
2022-10-21T18:23:41.873Z,56.37
2022-10-21T18:25:43.567Z,56.11
2022-10-21T18:27:45.167Z,56.16
2022-10-21T18:29:46.945Z,56.40
2022-10-21T18:31:48.641Z,56.53
2022-10-21T18:33:50.188Z,55.97
2022-10-21T18:35:51.875Z,57.13
2022-10-21T18:37:53.532Z,57.73
2022-10-21T18:39:58.146Z,57.77
2022-10-21T18:42:00.876Z,57.69
2022-10-21T18:44:08.211Z,58.01
2022-10-21T18:46:09.967Z,57.62
2022-10-21T18:48:11.578Z,57.66
2022-10-21T18:50:14.346Z,57.68
2022-10-21T18:52:15.917Z,58.14
2022-10-21T18:54:17.628Z,58.62
2022-10-21T18:56:20.128Z,59.00
2022-10-21T18:58:21.746Z,59.44
2022-10-21T19:00:23.341Z,58.94
2022-10-21T19:02:25.208Z,59.00
2022-10-21T19:04:26.975Z,58.68
2022-10-21T19:06:42.943Z,58.69
2022-10-21T19:08:44.948Z,58.79
2022-10-21T19:10:47.079Z,58.78
2022-10-21T19:12:48.766Z,58.77
2022-10-21T19:14:50.799Z,59.18
2022-10-21T19:16:52.425Z,58.98
2022-10-21T19:18:54.853Z,58.84
2022-10-21T19:20:56.835Z,58.59
2022-10-21T19:22:58.450Z,58.68
2022-10-21T19:25:00.157Z,58.88
2022-10-21T19:27:01.796Z,59.04
2022-10-21T19:29:08.790Z,58.96
2022-10-21T19:31:13.488Z,58.79
2022-10-21T19:33:15.053Z,58.86
2022-10-21T19:35:16.719Z,59.20
2022-10-21T19:37:18.407Z,59.38
2022-10-21T19:39:20.187Z,59.82
2022-10-21T19:41:22.986Z,59.64
2022-10-21T19:43:25.821Z,60.32
2022-10-21T19:45:27.548Z,60.34
2022-10-21T19:47:31.209Z,60.34
2022-10-21T19:49:33.170Z,60.42
2022-10-21T19:51:35.530Z,61.00
2022-10-21T19:53:37.188Z,62.21
2022-10-21T19:55:38.941Z,61.89
2022-10-21T19:57:40.808Z,62.53
2022-10-21T19:59:42.424Z,62.31
2022-10-21T20:01:44.180Z,61.62
2022-10-21T20:03:47.101Z,61.00
2022-10-21T20:05:48.667Z,60.43
2022-10-21T20:07:50.235Z,59.57
2022-10-21T20:09:51.945Z,59.74
2022-10-21T20:11:55.010Z,59.48
2022-10-21T20:13:56.806Z,59.56
2022-10-21T20:15:59.291Z,59.35
2022-10-21T20:18:01.008Z,59.15
2022-10-21T20:20:02.590Z,59.64
2022-10-21T20:22:04.425Z,59.60
2022-10-21T20:24:06.309Z,59.29
2022-10-21T20:26:08.137Z,59.30
2022-10-21T20:28:09.809Z,59.11
2022-10-21T20:30:11.852Z,59.10
2022-10-21T20:32:13.447Z,59.39
2022-10-21T20:34:15.269Z,59.16
2022-10-21T20:36:23.040Z,59.14
2022-10-21T20:38:24.668Z,59.34
2022-10-21T20:40:27.531Z,59.52
2022-10-21T20:42:29.116Z,59.63
2022-10-21T20:44:30.742Z,59.61
2022-10-21T20:46:35.270Z,59.50
2022-10-21T20:48:40.830Z,60.15
2022-10-21T20:50:42.539Z,59.78
2022-10-21T20:52:44.210Z,59.76
2022-10-21T20:54:45.823Z,59.77
2022-10-21T20:56:47.425Z,59.86
2022-10-21T20:58:49.056Z,59.59
2022-10-21T21:00:50.724Z,59.73
2022-10-21T21:02:52.367Z,59.89
2022-10-21T21:04:55.164Z,59.65
2022-10-21T21:06:56.803Z,59.88
2022-10-21T21:09:28.874Z,60.09
2022-10-21T21:11:20.081Z,60.01
2022-10-21T21:13:21.665Z,60.35
2022-10-21T21:15:23.293Z,60.32
2022-10-21T21:17:25.129Z,61.00
2022-10-21T21:19:26.839Z,62.25
2022-10-21T21:21:29.328Z,62.98
2022-10-21T21:23:31.009Z,62.76
2022-10-21T21:25:32.642Z,62.44
2022-10-21T21:27:34.266Z,62.19
2022-10-21T21:29:36.232Z,61.96
2022-10-21T21:31:38.730Z,61.64
2022-10-21T21:33:40.659Z,61.66
2022-10-21T21:35:42.275Z,61.41
2022-10-21T21:37:43.944Z,61.53
2022-10-21T21:39:45.503Z,61.36
2022-10-21T21:41:47.170Z,61.40
2022-10-21T21:43:50.408Z,61.19
2022-10-21T21:45:51.989Z,61.36
2022-10-21T21:47:53.599Z,61.45
2022-10-21T21:49:55.211Z,61.59
2022-10-21T21:51:56.819Z,61.66
2022-10-21T21:53:59.029Z,61.76
2022-10-21T21:56:03.328Z,61.95
2022-10-21T21:58:05.681Z,62.01
2022-10-21T22:00:08.015Z,62.52
2022-10-21T22:02:10.067Z,62.38
2022-10-21T22:04:11.615Z,62.19
2022-10-21T22:06:14.124Z,62.74
2022-10-21T22:08:15.796Z,63.64
2022-10-21T22:10:17.915Z,64.32
2022-10-21T22:12:22.932Z,64.78
2022-10-21T22:14:24.875Z,64.00
2022-10-21T22:16:30.293Z,63.73
2022-10-21T22:18:32.508Z,63.49
2022-10-21T22:20:34.163Z,63.80
2022-10-21T22:22:36.145Z,63.43
2022-10-21T22:24:38.135Z,63.56
2022-10-21T22:26:39.772Z,63.35
2022-10-21T22:28:42.224Z,63.82
2022-10-21T22:30:43.884Z,63.66
2022-10-21T22:32:45.530Z,63.63
2022-10-21T22:34:47.187Z,63.10
2022-10-21T22:36:49.019Z,63.33
2022-10-21T22:38:50.647Z,63.16
2022-10-21T22:40:56.666Z,63.53
2022-10-21T22:42:58.349Z,63.21
2022-10-21T22:45:00.065Z,63.17
2022-10-21T22:47:01.681Z,63.19
2022-10-21T22:49:06.519Z,63.22
2022-10-21T22:51:08.111Z,63.22
2022-10-21T22:53:09.992Z,62.80
2022-10-21T22:55:11.728Z,63.03
2022-10-21T22:57:13.349Z,63.16
2022-10-21T22:59:14.969Z,63.50
2022-10-21T23:01:16.574Z,63.15
2022-10-21T23:03:19.766Z,62.92
2022-10-21T23:05:21.426Z,63.41
2022-10-21T23:07:23.116Z,63.57
2022-10-21T23:09:24.902Z,63.27
2022-10-21T23:11:27.084Z,63.25
2022-10-21T23:13:28.944Z,63.31
2022-10-21T23:15:30.533Z,63.40
2022-10-21T23:17:32.152Z,63.39
2022-10-21T23:19:33.808Z,63.34
2022-10-21T23:21:35.815Z,63.47
2022-10-21T23:23:37.498Z,63.24
2022-10-21T23:25:39.111Z,63.41
2022-10-21T23:27:40.787Z,63.65
2022-10-21T23:29:42.671Z,63.59
2022-10-21T23:31:44.325Z,63.81
2022-10-21T23:33:45.870Z,63.48
2022-10-21T23:35:47.482Z,63.98
2022-10-21T23:37:49.129Z,63.52
2022-10-21T23:39:50.744Z,63.81
2022-10-21T23:41:52.315Z,63.38
2022-10-21T23:43:54.210Z,63.34
2022-10-21T23:45:56.153Z,63.05
2022-10-21T23:47:57.844Z,63.06
2022-10-21T23:49:59.675Z,63.02
2022-10-21T23:52:01.632Z,63.60
2022-10-21T23:54:03.304Z,63.53
2022-10-21T23:56:05.512Z,63.97
2022-10-21T23:58:07.752Z,64.65
